Sjobris — SLXP — position and weather

sailwx.info

Track history (hours):
 
Tides and Currents Weather Stations Pressure Air Temp Water Temp Dewpoint Dewpoint Depression Visibility Wind Speed Wind Dir Waves Ship Positions

Sjobris

Last reported at 2015-May-23 06:33 UTC. Time now 2015-May-23 07:17 UTC.
Position N 59°19' E 018°04'.

Length 38 m.

Type: Passenger vessel. MMSI: 265522700.

Date/timePositionNaut miles runAvg speedWind from/ knotsBaromVisibWave heightAir tempDewpointWater temp
2015-May-23 06:33N 59°19' E 018°04'0 0.4
2015-May-23 05:33N 59°20' E 018°05'0 0.0
2015-May-23 04:33N 59°20' E 018°05'0 0.0
2015-May-23 03:33N 59°20' E 018°05'0 0.0
2015-May-23 02:33N 59°20' E 018°05'0 0.0
2015-May-23 01:31N 59°20' E 018°05'0 0.0
2015-May-23 00:31N 59°20' E 018°05'0 0.0
2015-May-22 23:31N 59°20' E 018°05'0 0.0
2015-May-22 22:26N 59°20' E 018°05'0 0.0
2015-May-22 21:17N 59°20' E 018°05'0 0.1
2015-May-22 14:33N 59°19' E 018°05'0 0.4
2015-May-22 13:33N 59°19' E 018°05'2 0.4
2015-May-22 07:23N 59°19' E 018°10'3 3.3
2015-May-22 06:33N 59°20' E 018°05'0 0.2
2015-May-22 05:33N 59°20' E 018°04'0 0.0
2015-May-22 04:33N 59°20' E 018°04'0 0.0
2015-May-22 03:33N 59°20' E 018°04'0 0.0
2015-May-22 02:33N 59°20' E 018°04'0 0.0
2015-May-22 01:33N 59°20' E 018°04'0 0.0
2015-May-22 00:33N 59°20' E 018°04'0 0.0
2015-May-21 23:33N 59°20' E 018°04'0 0.0
2015-May-21 22:33N 59°20' E 018°04'0 0.0
2015-May-21 21:33N 59°20' E 018°04'0 0.0
2015-May-21 20:33N 59°20' E 018°04'0 0.0
2015-May-21 19:33N 59°20' E 018°04'0 0.0
2015-May-21 18:33N 59°20' E 018°04'0 0.0
2015-May-21 17:33N 59°20' E 018°04'0 0.0
2015-May-21 16:33N 59°20' E 018°04'0 0.0
2015-May-21 15:33N 59°20' E 018°04'0 0.1
2015-May-21 14:33N 59°20' E 018°05'7 6.6
2015-May-21 13:27N 59°23' E 018°18'7 1.1
2015-May-21 07:10N 59°19' E 018°07'1 2.2
2015-May-21 06:34N 59°20' E 018°05'0 0.0
2015-May-21 05:28N 59°20' E 018°04'0 0.0
2015-May-21 04:34N 59°20' E 018°05'0 0.0
2015-May-21 03:34N 59°20' E 018°04'0 0.0
2015-May-21 02:34N 59°20' E 018°04'0 0.0
2015-May-21 01:34N 59°20' E 018°05'0 0.0
2015-May-21 00:30N 59°20' E 018°04'0 0.0
2015-May-20 23:19N 59°20' E 018°04'0 0.0
2015-May-20 22:34N 59°20' E 018°04'0 0.0
2015-May-20 21:34N 59°20' E 018°04'0 0.0
2015-May-20 20:34N 59°20' E 018°04'0 0.0
2015-May-20 19:34N 59°20' E 018°04'0 0.0
2015-May-20 18:34N 59°20' E 018°04'0 0.0
2015-May-20 17:34N 59°20' E 018°04'0 0.0
2015-May-20 16:33N 59°20' E 018°04'0 0.0
2015-May-20 15:20N 59°20' E 018°04'0 0.0
2015-May-20 14:23N 59°20' E 018°04'7 8.7
2015-May-20 13:33N 59°23' E 018°18'7 1.0
2015-May-20 07:10N 59°19' E 018°07'1 2.2
2015-May-20 06:32N 59°20' E 018°04'0 0.0
2015-May-20 05:34N 59°20' E 018°04'0 0.0
2015-May-20 04:34N 59°20' E 018°04'0 0.0
2015-May-20 03:34N 59°20' E 018°04'0 0.0
2015-May-20 02:33N 59°20' E 018°04'0 0.0
2015-May-20 01:34N 59°20' E 018°04'0 0.0
2015-May-20 00:34N 59°20' E 018°04'0 0.0
2015-May-19 23:34N 59°20' E 018°04'0 0.0
2015-May-19 22:34N 59°20' E 018°04'0 0.0
2015-May-19 21:34N 59°20' E 018°04'0 0.0
2015-May-19 20:34N 59°20' E 018°04'0 0.0
2015-May-19 19:34N 59°20' E 018°04'0 0.0
2015-May-19 17:33N 59°20' E 018°04'2 1.5
2015-May-19 16:29N 59°19' E 018°07'1 0.5
2015-May-19 15:34N 59°19' E 018°07'1 1.4
2015-May-19 14:33N 59°20' E 018°04'7 6.6
2015-May-19 13:27N 59°23' E 018°17'6 1.0
2015-May-19 07:11N 59°19' E 018°07'2 2.5
2015-May-19 06:34N 59°20' E 018°04'0 0.0
2015-May-19 05:34N 59°20' E 018°05'0 0.0
2015-May-19 04:32N 59°20' E 018°04'0 0.0
2015-May-19 03:34N 59°20' E 018°05'0 0.0
2015-May-19 02:34N 59°20' E 018°05'0 0.0
2015-May-19 01:34N 59°20' E 018°05'0 0.0
2015-May-19 00:34N 59°20' E 018°05'0 0.0
2015-May-18 23:34N 59°20' E 018°05'0 0.0
2015-May-18 22:31N 59°20' E 018°05'0 0.0
2015-May-18 21:34N 59°20' E 018°05'0 0.0
2015-May-18 20:34N 59°20' E 018°05'0 0.0
2015-May-18 19:34N 59°20' E 018°04'0 0.0
2015-May-18 18:33N 59°20' E 018°04'0 0.0
2015-May-18 17:34N 59°20' E 018°05'0 0.0
2015-May-18 16:29N 59°20' E 018°05'0 0.0
2015-May-18 15:25N 59°20' E 018°05'0 0.0
2015-May-18 14:13N 59°20' E 018°05'7 9.9
2015-May-18 13:28N 59°23' E 018°18'7 1.1
2015-May-18 07:09N 59°19' E 018°07'1 2.3
2015-May-18 06:33N 59°20' E 018°04'0 0.0
2015-May-18 05:33N 59°20' E 018°04'0 0.0
2015-May-18 04:33N 59°20' E 018°04'0 0.0
2015-May-18 03:33N 59°20' E 018°04'0 0.0
2015-May-18 02:33N 59°20' E 018°04'0 0.0
2015-May-18 01:33N 59°20' E 018°04'0 0.0
2015-May-18 00:33N 59°20' E 018°04'0 0.0
2015-May-17 23:33N 59°20' E 018°04'0 0.0
2015-May-17 22:33N 59°20' E 018°04'0 0.0
2015-May-17 21:33N 59°20' E 018°04'0 0.0
2015-May-17 20:33N 59°20' E 018°04'0 0.0
2015-May-17 19:33N 59°20' E 018°04'0 0.0
2015-May-17 18:33N 59°20' E 018°04'0 0.0
2015-May-17 17:33N 59°20' E 018°04'7 6.2
2015-May-17 16:24N 59°23' E 018°17'6 0.9
2015-May-17 09:11N 59°19' E 018°07'1 2.3
2015-May-17 08:34N 59°20' E 018°04'0 0.0
2015-May-17 07:33N 59°20' E 018°04'0 0.0
2015-May-17 06:34N 59°20' E 018°04'0 0.0
2015-May-17 05:33N 59°20' E 018°04'0 0.0
2015-May-17 02:09N 59°20' E 018°04'0 0.0
2015-May-17 01:33N 59°20' E 018°04'0 0.0
2015-May-17 00:33N 59°20' E 018°04'0 0.0
2015-May-16 23:33N 59°20' E 018°04'0 0.0
2015-May-16 22:33N 59°20' E 018°04'0 0.0
2015-May-16 21:24N 59°20' E 018°04'0 0.0
2015-May-16 20:33N 59°20' E 018°04'0 0.0
2015-May-16 19:21N 59°20' E 018°04'0 0.0
2015-May-16 18:31N 59°20' E 018°04'0 0.0
2015-May-16 17:33N 59°20' E 018°04'0 0.1
2015-May-16 16:29N 59°20' E 018°05'1 0.1
2015-May-16 07:09N 59°19' E 018°07'1 2.1
2015-May-16 06:33N 59°20' E 018°05'0 0.0
2015-May-16 05:33N 59°20' E 018°05'0 0.0
2015-May-16 04:33N 59°20' E 018°05'0 0.0
2015-May-16 03:34N 59°20' E 018°05'0 0.0
2015-May-16 02:33N 59°20' E 018°05'0 0.0
2015-May-16 01:33N 59°20' E 018°05'0 0.0
2015-May-16 00:33N 59°20' E 018°05'0 0.0
2015-May-15 23:34N 59°20' E 018°05'0 0.0
2015-May-15 22:33N 59°20' E 018°05'0 0.0
2015-May-15 21:33N 59°20' E 018°05'7 7.1
2015-May-15 20:31N 59°23' E 018°18'7 1.2
2015-May-15 14:33N 59°19' E 018°05'1 0.1
2015-May-15 07:10N 59°19' E 018°07'1 2.2
2015-May-15 06:33N 59°20' E 018°04'0 0.0
2015-May-15 05:33N 59°20' E 018°04'0 0.0
2015-May-15 04:33N 59°20' E 018°04'0 0.0
2015-May-15 03:33N 59°20' E 018°04'0 0.0
2015-May-15 02:33N 59°20' E 018°04'0 0.0
2015-May-15 01:33N 59°20' E 018°04'0 0.0
2015-May-15 00:33N 59°20' E 018°04'0 0.0
2015-May-14 23:33N 59°20' E 018°04'0 0.0
2015-May-14 22:33N 59°20' E 018°04'0 0.0
2015-May-14 21:33N 59°20' E 018°04'0 0.0
2015-May-14 20:33N 59°20' E 018°04'0 0.0
2015-May-14 19:33N 59°20' E 018°04'0 0.0
2015-May-14 18:33N 59°20' E 018°04'0 0.0
2015-May-14 17:33N 59°20' E 018°04'3 2.5
2015-May-14 16:30N 59°19' E 018°10'1 0.2
2015-May-14 07:10N 59°19' E 018°07'1 2.1
2015-May-14 06:33N 59°20' E 018°05'0 0.0
2015-May-14 05:33N 59°20' E 018°05'0 0.0
2015-May-14 04:33N 59°20' E 018°05'0 0.0
2015-May-14 03:33N 59°20' E 018°05'0 0.0
2015-May-14 02:28N 59°20' E 018°05'0 0.0
2015-May-14 01:33N 59°20' E 018°05'0 0.0
2015-May-14 00:33N 59°20' E 018°05'0 0.0
2015-May-13 23:33N 59°20' E 018°05'0 0.0
2015-May-13 22:33N 59°20' E 018°05'0 0.0
2015-May-13 21:27N 59°20' E 018°05'7 7.7
2015-May-13 20:33N 59°22' E 018°17'1 0.3
2015-May-13 15:21N 59°23' E 018°20'810.5
2015-May-13 14:34N 59°20' E 018°04'5 4.7
2015-May-13 13:25N 59°21' E 018°15'2 0.3
2015-May-13 07:19N 59°20' E 018°12'  
Track history (hours):
 
Tides and Currents Weather Stations Pressure Air Temp Water Temp Dewpoint Dewpoint Depression Visibility Wind Speed Wind Dir Waves Ship Positions

Sjobris

Last reported at 2015-May-23 06:33 UTC. Time now 2015-May-23 07:17 UTC.
Position N 59°19' E 018°04'.

Length 38 m.

Type: Passenger vessel. MMSI: 265522700.

Date/timePositionNaut miles runAvg speedWind from/ knotsBaromVisibWave heightAir tempDewpointWater temp
2015-May-23 06:33N 59°19' E 018°04'0 0.4
2015-May-23 05:33N 59°20' E 018°05'0 0.0
2015-May-23 04:33N 59°20' E 018°05'0 0.0
2015-May-23 03:33N 59°20' E 018°05'0 0.0
2015-May-23 02:33N 59°20' E 018°05'0 0.0
2015-May-23 01:31N 59°20' E 018°05'0 0.0
2015-May-23 00:31N 59°20' E 018°05'0 0.0
2015-May-22 23:31N 59°20' E 018°05'0 0.0
2015-May-22 22:26N 59°20' E 018°05'0 0.0
2015-May-22 21:17N 59°20' E 018°05'0 0.1
2015-May-22 14:33N 59°19' E 018°05'0 0.4
2015-May-22 13:33N 59°19' E 018°05'2 0.4
2015-May-22 07:23N 59°19' E 018°10'3 3.3
2015-May-22 06:33N 59°20' E 018°05'0 0.2
2015-May-22 05:33N 59°20' E 018°04'0 0.0
2015-May-22 04:33N 59°20' E 018°04'0 0.0
2015-May-22 03:33N 59°20' E 018°04'0 0.0
2015-May-22 02:33N 59°20' E 018°04'0 0.0
2015-May-22 01:33N 59°20' E 018°04'0 0.0
2015-May-22 00:33N 59°20' E 018°04'0 0.0
2015-May-21 23:33N 59°20' E 018°04'0 0.0
2015-May-21 22:33N 59°20' E 018°04'0 0.0
2015-May-21 21:33N 59°20' E 018°04'0 0.0
2015-May-21 20:33N 59°20' E 018°04'0 0.0
2015-May-21 19:33N 59°20' E 018°04'0 0.0
2015-May-21 18:33N 59°20' E 018°04'0 0.0
2015-May-21 17:33N 59°20' E 018°04'0 0.0
2015-May-21 16:33N 59°20' E 018°04'0 0.0
2015-May-21 15:33N 59°20' E 018°04'0 0.1
2015-May-21 14:33N 59°20' E 018°05'7 6.6
2015-May-21 13:27N 59°23' E 018°18'7 1.1
2015-May-21 07:10N 59°19' E 018°07'1 2.2
2015-May-21 06:34N 59°20' E 018°05'0 0.0
2015-May-21 05:28N 59°20' E 018°04'0 0.0
2015-May-21 04:34N 59°20' E 018°05'0 0.0
2015-May-21 03:34N 59°20' E 018°04'0 0.0
2015-May-21 02:34N 59°20' E 018°04'0 0.0
2015-May-21 01:34N 59°20' E 018°05'0 0.0
2015-May-21 00:30N 59°20' E 018°04'0 0.0
2015-May-20 23:19N 59°20' E 018°04'0 0.0
2015-May-20 22:34N 59°20' E 018°04'0 0.0
2015-May-20 21:34N 59°20' E 018°04'0 0.0
2015-May-20 20:34N 59°20' E 018°04'0 0.0
2015-May-20 19:34N 59°20' E 018°04'0 0.0
2015-May-20 18:34N 59°20' E 018°04'0 0.0
2015-May-20 17:34N 59°20' E 018°04'0 0.0
2015-May-20 16:33N 59°20' E 018°04'0 0.0
2015-May-20 15:20N 59°20' E 018°04'0 0.0
2015-May-20 14:23N 59°20' E 018°04'7 8.7
2015-May-20 13:33N 59°23' E 018°18'7 1.0
2015-May-20 07:10N 59°19' E 018°07'1 2.2
2015-May-20 06:32N 59°20' E 018°04'0 0.0
2015-May-20 05:34N 59°20' E 018°04'0 0.0
2015-May-20 04:34N 59°20' E 018°04'0 0.0
2015-May-20 03:34N 59°20' E 018°04'0 0.0
2015-May-20 02:33N 59°20' E 018°04'0 0.0
2015-May-20 01:34N 59°20' E 018°04'0 0.0
2015-May-20 00:34N 59°20' E 018°04'0 0.0
2015-May-19 23:34N 59°20' E 018°04'0 0.0
2015-May-19 22:34N 59°20' E 018°04'0 0.0
2015-May-19 21:34N 59°20' E 018°04'0 0.0
2015-May-19 20:34N 59°20' E 018°04'0 0.0
2015-May-19 19:34N 59°20' E 018°04'0 0.0
2015-May-19 17:33N 59°20' E 018°04'2 1.5
2015-May-19 16:29N 59°19' E 018°07'1 0.5
2015-May-19 15:34N 59°19' E 018°07'1 1.4
2015-May-19 14:33N 59°20' E 018°04'7 6.6
2015-May-19 13:27N 59°23' E 018°17'6 1.0
2015-May-19 07:11N 59°19' E 018°07'2 2.5
2015-May-19 06:34N 59°20' E 018°04'0 0.0
2015-May-19 05:34N 59°20' E 018°05'0 0.0
2015-May-19 04:32N 59°20' E 018°04'0 0.0
2015-May-19 03:34N 59°20' E 018°05'0 0.0
2015-May-19 02:34N 59°20' E 018°05'0 0.0
2015-May-19 01:34N 59°20' E 018°05'0 0.0
2015-May-19 00:34N 59°20' E 018°05'0 0.0
2015-May-18 23:34N 59°20' E 018°05'0 0.0
2015-May-18 22:31N 59°20' E 018°05'0 0.0
2015-May-18 21:34N 59°20' E 018°05'0 0.0
2015-May-18 20:34N 59°20' E 018°05'0 0.0
2015-May-18 19:34N 59°20' E 018°04'0 0.0
2015-May-18 18:33N 59°20' E 018°04'0 0.0
2015-May-18 17:34N 59°20' E 018°05'0 0.0
2015-May-18 16:29N 59°20' E 018°05'0 0.0
2015-May-18 15:25N 59°20' E 018°05'0 0.0
2015-May-18 14:13N 59°20' E 018°05'7 9.9
2015-May-18 13:28N 59°23' E 018°18'7 1.1
2015-May-18 07:09N 59°19' E 018°07'1 2.3
2015-May-18 06:33N 59°20' E 018°04'0 0.0
2015-May-18 05:33N 59°20' E 018°04'0 0.0
2015-May-18 04:33N 59°20' E 018°04'0 0.0
2015-May-18 03:33N 59°20' E 018°04'0 0.0
2015-May-18 02:33N 59°20' E 018°04'0 0.0
2015-May-18 01:33N 59°20' E 018°04'0 0.0
2015-May-18 00:33N 59°20' E 018°04'0 0.0
2015-May-17 23:33N 59°20' E 018°04'0 0.0
2015-May-17 22:33N 59°20' E 018°04'0 0.0
2015-May-17 21:33N 59°20' E 018°04'0 0.0
2015-May-17 20:33N 59°20' E 018°04'0 0.0
2015-May-17 19:33N 59°20' E 018°04'0 0.0
2015-May-17 18:33N 59°20' E 018°04'0 0.0
2015-May-17 17:33N 59°20' E 018°04'7 6.2
2015-May-17 16:24N 59°23' E 018°17'6 0.9
2015-May-17 09:11N 59°19' E 018°07'1 2.3
2015-May-17 08:34N 59°20' E 018°04'0 0.0
2015-May-17 07:33N 59°20' E 018°04'0 0.0
2015-May-17 06:34N 59°20' E 018°04'0 0.0
2015-May-17 05:33N 59°20' E 018°04'0 0.0
2015-May-17 02:09N 59°20' E 018°04'0 0.0
2015-May-17 01:33N 59°20' E 018°04'0 0.0
2015-May-17 00:33N 59°20' E 018°04'0 0.0
2015-May-16 23:33N 59°20' E 018°04'0 0.0
2015-May-16 22:33N 59°20' E 018°04'0 0.0
2015-May-16 21:24N 59°20' E 018°04'0 0.0
2015-May-16 20:33N 59°20' E 018°04'0 0.0
2015-May-16 19:21N 59°20' E 018°04'0 0.0
2015-May-16 18:31N 59°20' E 018°04'0 0.0
2015-May-16 17:33N 59°20' E 018°04'0 0.1
2015-May-16 16:29N 59°20' E 018°05'1 0.1
2015-May-16 07:09N 59°19' E 018°07'1 2.1
2015-May-16 06:33N 59°20' E 018°05'0 0.0
2015-May-16 05:33N 59°20' E 018°05'0 0.0
2015-May-16 04:33N 59°20' E 018°05'0 0.0
2015-May-16 03:34N 59°20' E 018°05'0 0.0
2015-May-16 02:33N 59°20' E 018°05'0 0.0
2015-May-16 01:33N 59°20' E 018°05'0 0.0
2015-May-16 00:33N 59°20' E 018°05'0 0.0
2015-May-15 23:34N 59°20' E 018°05'0 0.0
2015-May-15 22:33N 59°20' E 018°05'0 0.0
2015-May-15 21:33N 59°20' E 018°05'7 7.1
2015-May-15 20:31N 59°23' E 018°18'7 1.2
2015-May-15 14:33N 59°19' E 018°05'1 0.1
2015-May-15 07:10N 59°19' E 018°07'1 2.2
2015-May-15 06:33N 59°20' E 018°04'0 0.0
2015-May-15 05:33N 59°20' E 018°04'0 0.0
2015-May-15 04:33N 59°20' E 018°04'0 0.0
2015-May-15 03:33N 59°20' E 018°04'0 0.0
2015-May-15 02:33N 59°20' E 018°04'0 0.0
2015-May-15 01:33N 59°20' E 018°04'0 0.0
2015-May-15 00:33N 59°20' E 018°04'0 0.0
2015-May-14 23:33N 59°20' E 018°04'0 0.0
2015-May-14 22:33N 59°20' E 018°04'0 0.0
2015-May-14 21:33N 59°20' E 018°04'0 0.0
2015-May-14 20:33N 59°20' E 018°04'0 0.0
2015-May-14 19:33N 59°20' E 018°04'0 0.0
2015-May-14 18:33N 59°20' E 018°04'0 0.0
2015-May-14 17:33N 59°20' E 018°04'3 2.5
2015-May-14 16:30N 59°19' E 018°10'1 0.2
2015-May-14 07:10N 59°19' E 018°07'1 2.1
2015-May-14 06:33N 59°20' E 018°05'0 0.0
2015-May-14 05:33N 59°20' E 018°05'0 0.0
2015-May-14 04:33N 59°20' E 018°05'0 0.0
2015-May-14 03:33N 59°20' E 018°05'0 0.0
2015-May-14 02:28N 59°20' E 018°05'0 0.0
2015-May-14 01:33N 59°20' E 018°05'0 0.0
2015-May-14 00:33N 59°20' E 018°05'0 0.0
2015-May-13 23:33N 59°20' E 018°05'0 0.0
2015-May-13 22:33N 59°20' E 018°05'0 0.0
2015-May-13 21:27N 59°20' E 018°05'7 7.7
2015-May-13 20:33N 59°22' E 018°17'1 0.3
2015-May-13 15:21N 59°23' E 018°20'810.5
2015-May-13 14:34N 59°20' E 018°04'5 4.7
2015-May-13 13:25N 59°21' E 018°15'2 0.3
2015-May-13 07:19N 59°20' E 018°12'  

Dump ship's entire track history